Aviation Digital Data Service (ADDS)

Output produced by METARs form (1158 UTC 25 June 2018)
found at http://www.aviationweather.gov/adds/metars/
 
NSFA 251100Z 14003KT 9999 FEW030 24/23 Q1013 NOSIG
NSFA 251000Z 18004KT 9999 FEW027 24/23 Q1014 RMK DEW
NSFA 250900Z 14003KT 9999 SCT020 24/23 Q1014 NOSIG
NSFA 250800Z 12004KT 9999 FEW030 25/24 Q1014 NOSIG
NSFA 250500Z 09005KT 9999 SCT025 BKN280 28/24 Q1012
NSFA 250300Z 03010KT 9999 FEW020CB SCT025 30/25 Q1011 RMK CB TO SW
NSFA 250200Z 02011KT 9999 BKN026 30/25 Q1012
NSFA 242200Z 04009KT 010V080 9999 SCT022 30/25 Q1014 NOSIG
NSFA 242100Z 03007KT 010V070 9999 SCT023 30/24 Q1014 NOSIG
NSFA 242000Z VRB03KT 9999 FEW025 29/24 Q1014 NOSIG
NSFA 241700Z 17003KT 9999 FEW034 22/22 Q1013 NOSIG
NSFA 241600Z 17003KT 9999 FEW034 22/22 Q1012 NOSIG
NSFA 241500Z 16003KT 9999 FEW030 23/22 Q1012 NOSIG
NSFA 241400Z 17003KT 9999 FEW030 23/22 Q1012 NOSIG